sensor_id;sensor_type;location;lat;lon;timestamp;pressure;altitude;pressure_sealevel;temperature;humidity
8280;BME280;8335;42.646;23.380;2023-03-19T00:01:30;142136.97;;;2.10;78.56
8280;BME280;8335;42.646;23.380;2023-03-19T00:03:56;142120.91;;;2.04;79.29
8280;BME280;8335;42.646;23.380;2023-03-19T00:06:23;142123.38;;;2.05;79.25
8280;BME280;8335;42.646;23.380;2023-03-19T00:08:51;142082.66;;;1.88;79.36
8280;BME280;8335;42.646;23.380;2023-03-19T00:11:18;142082.66;;;1.88;79.37
8280;BME280;8335;42.646;23.380;2023-03-19T00:13:45;142097.50;;;1.94;78.62
8280;BME280;8335;42.646;23.380;2023-03-19T00:16:12;142097.50;;;1.94;77.99
8280;BME280;8335;42.646;23.380;2023-03-19T00:18:38;142092.53;;;1.92;77.35
8280;BME280;8335;42.646;23.380;2023-03-19T00:21:06;142086.38;;;1.89;78.08
8280;BME280;8335;42.646;23.380;2023-03-19T00:23:33;142081.44;;;1.87;77.77
8280;BME280;8335;42.646;23.380;2023-03-19T00:26:02;142071.56;;;1.83;77.57
8280;BME280;8335;42.646;23.380;2023-03-19T00:28:29;142071.56;;;1.83;76.75
8280;BME280;8335;42.646;23.380;2023-03-19T00:30:56;142080.22;;;1.87;77.39
8280;BME280;8335;42.646;23.380;2023-03-19T00:33:23;142083.91;;;1.88;77.03
8280;BME280;8335;42.646;23.380;2023-03-19T00:35:51;142076.47;;;1.85;76.75
8280;BME280;8335;42.646;23.380;2023-03-19T00:38:17;142083.91;;;1.88;76.54
8280;BME280;8335;42.646;23.380;2023-03-19T00:40:44;142076.47;;;1.85;76.66
8280;BME280;8335;42.646;23.380;2023-03-19T00:43:14;142069.09;;;1.82;77.50
8280;BME280;8335;42.646;23.380;2023-03-19T00:45:41;142066.63;;;1.81;77.09
8280;BME280;8335;42.646;23.380;2023-03-19T00:48:08;142028.41;;;1.65;77.62
8280;BME280;8335;42.646;23.380;2023-03-19T00:50:34;142037.00;;;1.69;78.59
8280;BME280;8335;42.646;23.380;2023-03-19T00:53:01;142040.69;;;1.71;78.78
8280;BME280;8335;42.646;23.380;2023-03-19T00:55:28;142039.47;;;1.70;79.33
8280;BME280;8335;42.646;23.380;2023-03-19T00:57:55;142050.59;;;1.75;78.84
8280;BME280;8335;42.646;23.380;2023-03-19T01:00:24;142066.63;;;1.81;78.87
8280;BME280;8335;42.646;23.380;2023-03-19T01:02:51;142064.16;;;1.80;79.73
8280;BME280;8335;42.646;23.380;2023-03-19T01:05:17;142062.94;;;1.80;80.02
8280;BME280;8335;42.646;23.380;2023-03-19T01:07:44;142037.00;;;1.69;80.29
8280;BME280;8335;42.646;23.380;2023-03-19T01:10:11;142019.72;;;1.62;80.26
8280;BME280;8335;42.646;23.380;2023-03-19T01:12:38;142002.47;;;1.55;80.37
8280;BME280;8335;42.646;23.380;2023-03-19T01:15:07;142016.03;;;1.60;81.19
8280;BME280;8335;42.646;23.380;2023-03-19T01:17:35;142009.91;;;1.58;81.30
8280;BME280;8335;42.646;23.380;2023-03-19T01:20:02;142024.66;;;1.64;81.27
8280;BME280;8335;42.646;23.380;2023-03-19T01:22:34;141929.72;;;1.25;81.36
8280;BME280;8335;42.646;23.380;2023-03-19T01:25:03;142016.03;;;1.60;81.22
8280;BME280;8335;42.646;23.380;2023-03-19T01:27:30;142003.69;;;1.55;80.73
8280;BME280;8335;42.646;23.380;2023-03-19T01:29:57;141996.31;;;1.52;80.78
8280;BME280;8335;42.646;23.380;2023-03-19T01:32:23;141981.50;;;1.46;80.33
8280;BME280;8335;42.646;23.380;2023-03-19T01:34:52;141988.88;;;1.49;81.09
8280;BME280;8335;42.646;23.380;2023-03-19T01:37:19;141977.81;;;1.45;80.70
8280;BME280;8335;42.646;23.380;2023-03-19T01:39:46;141970.38;;;1.42;79.47
8280;BME280;8335;42.646;23.380;2023-03-19T01:42:13;141982.72;;;1.47;78.33
8280;BME280;8335;42.646;23.380;2023-03-19T01:44:40;141986.44;;;1.48;78.49
8280;BME280;8335;42.646;23.380;2023-03-19T01:47:15;141977.81;;;1.45;77.81
8280;BME280;8335;42.646;23.380;2023-03-19T01:49:46;141969.16;;;1.41;79.19
8280;BME280;8335;42.646;23.380;2023-03-19T01:52:18;141956.84;;;1.36;79.34
8280;BME280;8335;42.646;23.380;2023-03-19T01:54:46;141938.31;;;1.28;79.10
8280;BME280;8335;42.646;23.380;2023-03-19T01:57:14;141937.09;;;1.28;79.74
8280;BME280;8335;42.646;23.380;2023-03-19T01:59:43;141937.09;;;1.28;79.25
8280;BME280;8335;42.646;23.380;2023-03-19T02:02:16;141945.75;;;1.31;78.94
8280;BME280;8335;42.646;23.380;2023-03-19T02:04:47;141950.66;;;1.33;78.66
8280;BME280;8335;42.646;23.380;2023-03-19T02:07:18;141926.03;;;1.23;79.15
8280;BME280;8335;42.646;23.380;2023-03-19T02:09:45;141921.06;;;1.21;78.96
8280;BME280;8335;42.646;23.380;2023-03-19T02:12:12;141908.75;;;1.16;79.25
8280;BME280;8335;42.646;23.380;2023-03-19T02:14:40;141916.13;;;1.19;79.29
8280;BME280;8335;42.646;23.380;2023-03-19T02:17:07;141895.19;;;1.10;79.62
8280;BME280;8335;42.646;23.380;2023-03-19T02:19:38;141848.31;;;0.91;79.27
8280;BME280;8335;42.646;23.380;2023-03-19T02:22:07;141895.19;;;1.10;79.23
8280;BME280;8335;42.646;23.380;2023-03-19T02:24:40;141884.06;;;1.06;79.48
8280;BME280;8335;42.646;23.380;2023-03-19T02:27:12;141863.13;;;0.97;80.20
8280;BME280;8335;42.646;23.380;2023-03-19T02:29:38;141853.28;;;0.93;80.90
8280;BME280;8335;42.646;23.380;2023-03-19T02:32:05;141842.16;;;0.89;81.03
8280;BME280;8335;42.646;23.380;2023-03-19T02:34:37;141844.63;;;0.90;80.65
8280;BME280;8335;42.646;23.380;2023-03-19T02:37:09;141848.31;;;0.91;79.92
8280;BME280;8335;42.646;23.380;2023-03-19T02:39:42;141843.41;;;0.89;80.79
8280;BME280;8335;42.646;23.380;2023-03-19T02:42:16;141826.13;;;0.82;81.77
8280;BME280;8335;42.646;23.380;2023-03-19T02:44:44;141821.22;;;0.80;82.74
8280;BME280;8335;42.646;23.380;2023-03-19T02:47:12;141797.75;;;0.70;83.56
8280;BME280;8335;42.646;23.380;2023-03-19T02:49:39;141800.22;;;0.71;84.21
8280;BME280;8335;42.646;23.380;2023-03-19T02:52:06;141794.06;;;0.69;83.80
8280;BME280;8335;42.646;23.380;2023-03-19T02:54:33;141790.38;;;0.67;84.22
8280;BME280;8335;42.646;23.380;2023-03-19T02:57:00;141786.69;;;0.66;83.95
8280;BME280;8335;42.646;23.380;2023-03-19T02:59:28;141790.38;;;0.67;83.70
8280;BME280;8335;42.646;23.380;2023-03-19T03:01:55;141787.94;;;0.66;84.05
8280;BME280;8335;42.646;23.380;2023-03-19T03:04:22;141791.63;;;0.68;84.04
8280;BME280;8335;42.646;23.380;2023-03-19T03:06:49;141796.53;;;0.70;83.80
8280;BME280;8335;42.646;23.380;2023-03-19T03:09:15;141794.06;;;0.69;84.03
8280;BME280;8335;42.646;23.380;2023-03-19T03:11:42;141792.84;;;0.68;83.57
8280;BME280;8335;42.646;23.380;2023-03-19T03:14:09;141764.50;;;0.57;83.71
8280;BME280;8335;42.646;23.380;2023-03-19T03:16:38;141795.31;;;0.69;83.61
8280;BME280;8335;42.646;23.380;2023-03-19T03:19:04;141799.00;;;0.71;83.34
8280;BME280;8335;42.646;23.380;2023-03-19T03:21:31;141802.72;;;0.72;83.30
8280;BME280;8335;42.646;23.380;2023-03-19T03:23:59;141803.97;;;0.73;83.34
8280;BME280;8335;42.646;23.380;2023-03-19T03:26:25;141795.31;;;0.69;83.34
8280;BME280;8335;42.646;23.380;2023-03-19T03:28:52;141786.69;;;0.66;83.54
8280;BME280;8335;42.646;23.380;2023-03-19T03:31:19;141663.47;;;0.15;83.37
8280;BME280;8335;42.646;23.380;2023-03-19T03:33:47;141790.38;;;0.67;84.10
8280;BME280;8335;42.646;23.380;2023-03-19T03:36:14;141778.06;;;0.62;84.27
8280;BME280;8335;42.646;23.380;2023-03-19T03:38:41;141767.00;;;0.58;84.68
8280;BME280;8335;42.646;23.380;2023-03-19T03:41:08;141768.22;;;0.58;85.32
8280;BME280;8335;42.646;23.380;2023-03-19T03:43:35;141780.50;;;0.63;85.12
8280;BME280;8335;42.646;23.380;2023-03-19T03:46:02;141778.06;;;0.62;84.99
8280;BME280;8335;42.646;23.380;2023-03-19T03:48:29;141769.44;;;0.59;84.87
8280;BME280;8335;42.646;23.380;2023-03-19T03:50:57;141746.00;;;0.49;84.75
8280;BME280;8335;42.646;23.380;2023-03-19T03:53:23;141729.97;;;0.42;85.13
8280;BME280;8335;42.646;23.380;2023-03-19T03:55:50;141739.84;;;0.46;86.18
8280;BME280;8335;42.646;23.380;2023-03-19T03:58:17;141746.00;;;0.49;85.93
8280;BME280;8335;42.646;23.380;2023-03-19T04:00:44;141755.88;;;0.53;85.53
8280;BME280;8335;42.646;23.380;2023-03-19T04:03:12;141767.00;;;0.58;84.89
8280;BME280;8335;42.646;23.380;2023-03-19T04:05:39;141769.44;;;0.59;85.14
8280;BME280;8335;42.646;23.380;2023-03-19T04:08:07;141754.66;;;0.52;85.39
8280;BME280;8335;42.646;23.380;2023-03-19T04:10:34;141736.16;;;0.45;85.56
8280;BME280;8335;42.646;23.380;2023-03-19T04:13:01;141718.91;;;0.38;85.91
8280;BME280;8335;42.646;23.380;2023-03-19T04:15:28;141752.19;;;0.51;85.54
8280;BME280;8335;42.646;23.380;2023-03-19T04:17:55;141733.72;;;0.44;85.73
8280;BME280;8335;42.646;23.380;2023-03-19T04:20:23;141748.47;;;0.50;85.48
8280;BME280;8335;42.646;23.380;2023-03-19T04:22:49;141739.84;;;0.46;85.93
8280;BME280;8335;42.646;23.380;2023-03-19T04:25:18;141738.63;;;0.46;86.01
8280;BME280;8335;42.646;23.380;2023-03-19T04:27:44;141718.91;;;0.38;86.26
8280;BME280;8335;42.646;23.380;2023-03-19T04:30:12;141726.28;;;0.41;86.29
8280;BME280;8335;42.646;23.380;2023-03-19T04:32:39;141721.38;;;0.39;86.38
8280;BME280;8335;42.646;23.380;2023-03-19T04:35:06;141720.16;;;0.38;86.38
8280;BME280;8335;42.646;23.380;2023-03-19T04:37:33;141736.16;;;0.45;85.61
8280;BME280;8335;42.646;23.380;2023-03-19T04:40:00;141743.53;;;0.48;85.36
8280;BME280;8335;42.646;23.380;2023-03-19T04:42:28;141759.56;;;0.54;85.75
8280;BME280;8335;42.646;23.380;2023-03-19T04:44:55;141826.13;;;0.82;84.58
8280;BME280;8335;42.646;23.380;2023-03-19T04:47:22;141902.56;;;1.14;82.62
8280;BME280;8335;42.646;23.380;2023-03-19T04:49:48;142025.94;;;1.64;80.97
8280;BME280;8335;42.646;23.380;2023-03-19T04:52:15;142192.50;;;2.33;77.95
8280;BME280;8335;42.646;23.380;2023-03-19T04:54:42;142298.66;;;2.77;74.76
8280;BME280;8335;42.646;23.380;2023-03-19T04:57:09;142350.53;;;2.98;72.10
8280;BME280;8335;42.646;23.380;2023-03-19T04:59:38;142302.38;;;2.79;73.48
8280;BME280;8335;42.646;23.380;2023-03-19T05:02:05;142206.09;;;2.39;74.21
8280;BME280;8335;42.646;23.380;2023-03-19T05:04:32;142107.34;;;1.98;76.28
8280;BME280;8335;42.646;23.380;2023-03-19T05:06:59;142043.19;;;1.72;78.48
8280;BME280;8335;42.646;23.380;2023-03-19T05:09:26;141995.09;;;1.52;79.46
8280;BME280;8335;42.646;23.380;2023-03-19T05:11:53;141946.97;;;1.32;81.40
8280;BME280;8335;42.646;23.380;2023-03-19T05:14:21;141918.59;;;1.20;82.44
8280;BME280;8335;42.646;23.380;2023-03-19T05:16:49;141898.88;;;1.12;83.13
8280;BME280;8335;42.646;23.380;2023-03-19T05:19:16;141908.75;;;1.16;83.42
8280;BME280;8335;42.646;23.380;2023-03-19T05:21:43;141905.06;;;1.15;83.80
8280;BME280;8335;42.646;23.380;2023-03-19T05:24:10;141912.44;;;1.18;83.43
8280;BME280;8335;42.646;23.380;2023-03-19T05:26:36;141898.88;;;1.12;84.28
8280;BME280;8335;42.646;23.380;2023-03-19T05:29:03;141848.31;;;0.91;84.71
8280;BME280;8335;42.646;23.380;2023-03-19T05:31:30;141913.66;;;1.18;84.41
8280;BME280;8335;42.646;23.380;2023-03-19T05:33:58;141911.22;;;1.17;84.87
8280;BME280;8335;42.646;23.380;2023-03-19T05:36:25;141923.56;;;1.22;85.02
8280;BME280;8335;42.646;23.380;2023-03-19T05:38:52;141928.47;;;1.24;85.20
8280;BME280;8335;42.646;23.380;2023-03-19T05:41:19;141901.31;;;1.13;85.84
8280;BME280;8335;42.646;23.380;2023-03-19T05:43:46;141906.28;;;1.15;86.00
8280;BME280;8335;42.646;23.380;2023-03-19T05:46:12;141926.03;;;1.23;86.48
8280;BME280;8335;42.646;23.380;2023-03-19T05:48:39;141943.28;;;1.30;85.68
8280;BME280;8335;42.646;23.380;2023-03-19T05:51:08;141939.59;;;1.29;86.35
8280;BME280;8335;42.646;23.380;2023-03-19T05:53:35;141948.19;;;1.32;86.27
8280;BME280;8335;42.646;23.380;2023-03-19T05:56:03;141954.34;;;1.35;85.67
8280;BME280;8335;42.646;23.380;2023-03-19T05:58:30;141959.31;;;1.37;85.88
8280;BME280;8335;42.646;23.380;2023-03-19T06:00:56;141938.31;;;1.28;85.83
8280;BME280;8335;42.646;23.380;2023-03-19T06:03:23;141954.34;;;1.35;85.42
8280;BME280;8335;42.646;23.380;2023-03-19T06:05:51;141969.16;;;1.41;84.81
8280;BME280;8335;42.646;23.380;2023-03-19T06:08:19;141983.97;;;1.47;84.51
8280;BME280;8335;42.646;23.380;2023-03-19T06:10:47;142018.50;;;1.61;84.55
8280;BME280;8335;42.646;23.380;2023-03-19T06:13:14;142066.63;;;1.81;84.13
8280;BME280;8335;42.646;23.380;2023-03-19T06:15:41;142207.31;;;2.39;85.08
8280;BME280;8335;42.646;23.380;2023-03-19T06:18:07;142564.34;;;3.86;77.82
8280;BME280;8335;42.646;23.380;2023-03-19T06:20:34;143015.88;;;5.72;68.01
8280;BME280;8335;42.646;23.380;2023-03-19T06:23:01;143556.22;;;7.94;59.67
8280;BME280;8335;42.646;23.380;2023-03-19T06:25:29;143882.66;;;9.28;52.22
8280;BME280;8335;42.646;23.380;2023-03-19T06:27:56;144134.91;;;10.32;47.54
8280;BME280;8335;42.646;23.380;2023-03-19T06:30:22;144317.66;;;11.07;45.22
8280;BME280;8335;42.646;23.380;2023-03-19T06:32:49;144630.00;;;12.34;42.50
8280;BME280;8335;42.646;23.380;2023-03-19T06:35:16;144839.25;;;13.20;40.12
8280;BME280;8335;42.646;23.380;2023-03-19T06:37:42;144910.28;;;13.49;38.80
8280;BME280;8335;42.646;23.380;2023-03-19T06:40:10;145104.69;;;14.28;37.62
8280;BME280;8335;42.646;23.380;2023-03-19T06:42:38;145377.94;;;15.40;35.70
8280;BME280;8335;42.646;23.380;2023-03-19T06:45:06;145713.88;;;16.77;32.92
8280;BME280;8335;42.646;23.380;2023-03-19T06:47:33;145922.53;;;17.62;31.50
8280;BME280;8335;42.646;23.380;2023-03-19T06:49:59;146133.91;;;18.48;30.17
8280;BME280;8335;42.646;23.380;2023-03-19T06:52:26;146122.66;;;18.43;29.38
8280;BME280;8335;42.646;23.380;2023-03-19T06:54:53;146262.81;;;19.01;29.30
8280;BME280;8335;42.646;23.380;2023-03-19T06:57:20;146304.09;;;19.17;28.58
8280;BME280;8335;42.646;23.380;2023-03-19T06:59:48;146386.72;;;19.51;28.23
8280;BME280;8335;42.646;23.380;2023-03-19T07:02:15;146506.91;;;20.00;27.23
8280;BME280;8335;42.646;23.380;2023-03-19T07:04:42;146698.56;;;20.78;26.45
8280;BME280;8335;42.646;23.380;2023-03-19T07:07:09;146707.38;;;20.81;26.27
8280;BME280;8335;42.646;23.380;2023-03-19T07:09:36;146876.56;;;21.50;25.34
8280;BME280;8335;42.646;23.380;2023-03-19T07:12:03;147047.13;;;22.19;24.77
8280;BME280;8335;42.646;23.380;2023-03-19T07:14:30;147059.69;;;22.24;24.53
8280;BME280;8335;42.646;23.380;2023-03-19T07:16:58;146975.63;;;21.90;24.45
8280;BME280;8335;42.646;23.380;2023-03-19T07:19:25;146946.75;;;21.79;24.65
8280;BME280;8335;42.646;23.380;2023-03-19T07:21:51;146897.91;;;21.59;24.44
8280;BME280;8335;42.646;23.380;2023-03-19T07:24:18;146970.63;;;21.88;24.95
8280;BME280;8335;42.646;23.380;2023-03-19T07:26:45;147009.47;;;22.04;24.07
8280;BME280;8335;42.646;23.380;2023-03-19T07:29:12;147073.50;;;22.30;23.91
8280;BME280;8335;42.646;23.380;2023-03-19T07:31:39;147073.50;;;22.30;23.58
8280;BME280;8335;42.646;23.380;2023-03-19T07:34:08;146973.13;;;21.89;24.19
8280;BME280;8335;42.646;23.380;2023-03-19T07:36:34;147043.38;;;22.18;24.38
8280;BME280;8335;42.646;23.380;2023-03-19T07:39:01;146963.06;;;21.85;25.12
8280;BME280;8335;42.646;23.380;2023-03-19T07:41:28;146929.22;;;21.71;25.04
8280;BME280;8335;42.646;23.380;2023-03-19T07:43:55;146899.16;;;21.59;24.97
8280;BME280;8335;42.646;23.380;2023-03-19T07:46:22;146775.03;;;21.09;24.96
8280;BME280;8335;42.646;23.380;2023-03-19T07:48:49;146643.47;;;20.55;25.81
8280;BME280;8335;42.646;23.380;2023-03-19T07:51:17;146659.75;;;20.62;25.49
8280;BME280;8335;42.646;23.380;2023-03-19T07:53:43;146632.22;;;20.51;26.03
8280;BME280;8335;42.646;23.380;2023-03-19T07:56:10;146595.84;;;20.36;25.89
8280;BME280;8335;42.646;23.380;2023-03-19T07:58:37;146642.22;;;20.55;25.93
8280;BME280;8335;42.646;23.380;2023-03-19T08:01:04;146766.25;;;21.05;24.98
8280;BME280;8335;42.646;23.380;2023-03-19T08:03:31;146776.28;;;21.09;24.87
8280;BME280;8335;42.646;23.380;2023-03-19T08:05:58;146726.16;;;20.89;25.78
8280;BME280;8335;42.646;23.380;2023-03-19T08:08:27;146756.25;;;21.01;25.57
8280;BME280;8335;42.646;23.380;2023-03-19T08:10:54;146684.84;;;20.72;25.55
8280;BME280;8335;42.646;23.380;2023-03-19T08:13:21;146592.06;;;20.34;26.33
8280;BME280;8335;42.646;23.380;2023-03-19T08:15:48;146613.38;;;20.43;26.08
8280;BME280;8335;42.646;23.380;2023-03-19T08:18:14;146698.56;;;20.78;25.68
8280;BME280;8335;42.646;23.380;2023-03-19T08:20:43;146772.53;;;21.08;25.64
8280;BME280;8335;42.646;23.380;2023-03-19T08:23:10;146922.97;;;21.69;25.14
8280;BME280;8335;42.646;23.380;2023-03-19T08:25:38;147014.47;;;22.06;24.43
8280;BME280;8335;42.646;23.380;2023-03-19T08:28:05;147054.69;;;22.22;24.25
8280;BME280;8335;42.646;23.380;2023-03-19T08:30:34;146983.16;;;21.93;25.24
8280;BME280;8335;42.646;23.380;2023-03-19T08:33:01;147058.44;;;22.24;24.59
8280;BME280;8335;42.646;23.380;2023-03-19T08:35:28;147099.81;;;22.41;24.00
8280;BME280;8335;42.646;23.380;2023-03-19T08:37:55;147058.44;;;22.24;23.99
8280;BME280;8335;42.646;23.380;2023-03-19T08:40:22;146981.88;;;21.93;23.94
8280;BME280;8335;42.646;23.380;2023-03-19T08:42:50;147034.59;;;22.14;23.48
8280;BME280;8335;42.646;23.380;2023-03-19T08:45:18;146948.06;;;21.79;23.74
8280;BME280;8335;42.646;23.380;2023-03-19T08:47:45;146854.00;;;21.41;23.74
8280;BME280;8335;42.646;23.380;2023-03-19T08:50:13;146820.13;;;21.27;24.33
8280;BME280;8335;42.646;23.380;2023-03-19T08:52:40;146884.09;;;21.53;24.60
8280;BME280;8335;42.646;23.380;2023-03-19T08:55:08;147011.97;;;22.05;24.61
8280;BME280;8335;42.646;23.380;2023-03-19T08:57:35;147112.38;;;22.46;23.76
8280;BME280;8335;42.646;23.380;2023-03-19T09:00:04;147064.69;;;22.27;23.38
8280;BME280;8335;42.646;23.380;2023-03-19T09:02:32;146855.25;;;21.41;23.06
8280;BME280;8335;42.646;23.380;2023-03-19T09:04:59;146876.56;;;21.50;24.02
8280;BME280;8335;42.646;23.380;2023-03-19T09:07:25;146792.59;;;21.16;24.53
8280;BME280;8335;42.646;23.380;2023-03-19T09:09:52;146796.31;;;21.17;23.98
8280;BME280;8335;42.646;23.380;2023-03-19T09:12:19;146682.28;;;20.71;24.58
8280;BME280;8335;42.646;23.380;2023-03-19T09:14:46;146642.22;;;20.55;24.17
8280;BME280;8335;42.646;23.380;2023-03-19T09:17:14;146627.19;;;20.49;25.06
8280;BME280;8335;42.646;23.380;2023-03-19T09:19:42;146638.47;;;20.53;24.53
8280;BME280;8335;42.646;23.380;2023-03-19T09:22:09;146727.41;;;20.89;25.30
8280;BME280;8335;42.646;23.380;2023-03-19T09:24:35;146752.44;;;21.00;24.07
8280;BME280;8335;42.646;23.380;2023-03-19T09:27:02;146652.25;;;20.59;24.71
8280;BME280;8335;42.646;23.380;2023-03-19T09:29:29;146694.81;;;20.76;23.57
8280;BME280;8335;42.646;23.380;2023-03-19T09:31:56;146755.00;;;21.01;24.67
8280;BME280;8335;42.646;23.380;2023-03-19T09:34:26;146892.88;;;21.57;23.70
8280;BME280;8335;42.646;23.380;2023-03-19T09:36:53;146980.63;;;21.92;23.23
8280;BME280;8335;42.646;23.380;2023-03-19T09:39:19;147025.81;;;22.11;23.47
8280;BME280;8335;42.646;23.380;2023-03-19T09:41:56;146969.38;;;21.88;23.88
8280;BME280;8335;42.646;23.380;2023-03-19T09:44:29;146876.56;;;21.50;23.54
8280;BME280;8335;42.646;23.380;2023-03-19T09:47:09;146828.97;;;21.31;24.83
8280;BME280;8335;42.646;23.380;2023-03-19T09:49:42;146798.81;;;21.19;24.68
8280;BME280;8335;42.646;23.380;2023-03-19T09:52:16;146854.00;;;21.41;24.53
8280;BME280;8335;42.646;23.380;2023-03-19T09:54:47;146966.84;;;21.87;24.53
8280;BME280;8335;42.646;23.380;2023-03-19T09:57:16;147008.22;;;22.04;23.99
8280;BME280;8335;42.646;23.380;2023-03-19T09:59:44;147050.88;;;22.21;24.03
8280;BME280;8335;42.646;23.380;2023-03-19T10:02:25;147124.91;;;22.51;23.44
8280;BME280;8335;42.646;23.380;2023-03-19T10:05:02;147117.38;;;22.48;22.82
8280;BME280;8335;42.646;23.380;2023-03-19T10:07:46;146891.59;;;21.56;24.15
8280;BME280;8335;42.646;23.380;2023-03-19T10:10:24;146697.31;;;20.77;24.93
8280;BME280;8335;42.646;23.380;2023-03-19T10:13:01;146520.69;;;20.05;25.71
8280;BME280;8335;42.646;23.380;2023-03-19T10:15:32;146448.06;;;19.76;25.99
8280;BME280;8335;42.646;23.380;2023-03-19T10:18:02;146385.47;;;19.50;26.65
8280;BME280;8335;42.646;23.380;2023-03-19T10:20:43;146434.28;;;19.70;26.21
8280;BME280;8335;42.646;23.380;2023-03-19T10:23:26;146519.44;;;20.05;25.96
8280;BME280;8335;42.646;23.380;2023-03-19T10:25:57;146574.53;;;20.27;26.13
8280;BME280;8335;42.646;23.380;2023-03-19T10:28:26;146746.19;;;20.97;25.68
8280;BME280;8335;42.646;23.380;2023-03-19T10:30:59;146910.41;;;21.64;24.31
8280;BME280;8335;42.646;23.380;2023-03-19T10:33:35;146838.97;;;21.35;24.51
8280;BME280;8335;42.646;23.380;2023-03-19T10:36:09;146929.22;;;21.71;24.33
8280;BME280;8335;42.646;23.380;2023-03-19T10:38:39;146974.38;;;21.90;23.81
8280;BME280;8335;42.646;23.380;2023-03-19T10:41:17;146976.88;;;21.91;23.60
8280;BME280;8335;42.646;23.380;2023-03-19T10:43:51;147003.22;;;22.02;22.97
8280;BME280;8335;42.646;23.380;2023-03-19T10:46:18;147074.75;;;22.31;23.03
8280;BME280;8335;42.646;23.380;2023-03-19T10:48:46;147045.88;;;22.19;23.01
8280;BME280;8335;42.646;23.380;2023-03-19T10:51:15;146835.22;;;21.33;24.03
8280;BME280;8335;42.646;23.380;2023-03-19T10:53:46;146771.25;;;21.07;24.46
8280;BME280;8335;42.646;23.380;2023-03-19T10:56:18;146643.47;;;20.55;24.67
8280;BME280;8335;42.646;23.380;2023-03-19T10:58:58;146684.84;;;20.72;25.50
8280;BME280;8335;42.646;23.380;2023-03-19T11:01:27;146608.34;;;20.41;25.98
8280;BME280;8335;42.646;23.380;2023-03-19T11:03:58;146471.84;;;19.86;25.90
8280;BME280;8335;42.646;23.380;2023-03-19T11:06:30;146534.47;;;20.11;26.19
8280;BME280;8335;42.646;23.380;2023-03-19T11:08:58;146554.50;;;20.19;26.25
8280;BME280;8335;42.646;23.380;2023-03-19T11:11:33;146501.91;;;19.98;25.59
8280;BME280;8335;42.646;23.380;2023-03-19T11:14:08;146505.66;;;19.99;25.51
8280;BME280;8335;42.646;23.380;2023-03-19T11:16:50;146560.78;;;20.22;25.95
8280;BME280;8335;42.646;23.380;2023-03-19T11:19:20;146455.59;;;19.79;26.54
8280;BME280;8335;42.646;23.380;2023-03-19T11:22:06;146494.41;;;19.95;25.81
8280;BME280;8335;42.646;23.380;2023-03-19T11:24:36;146372.94;;;19.45;26.99
8280;BME280;8335;42.646;23.380;2023-03-19T11:27:04;146315.38;;;19.22;26.64
8280;BME280;8335;42.646;23.380;2023-03-19T11:29:33;146265.31;;;19.02;27.44
8280;BME280;8335;42.646;23.380;2023-03-19T11:32:11;146194.00;;;18.73;28.18
8280;BME280;8335;42.646;23.380;2023-03-19T11:34:48;146151.41;;;18.55;27.82
8280;BME280;8335;42.646;23.380;2023-03-19T11:37:22;146135.13;;;18.49;27.61
8280;BME280;8335;42.646;23.380;2023-03-19T11:39:58;146016.38;;;18.00;27.56
8280;BME280;8335;42.646;23.380;2023-03-19T11:42:46;146062.59;;;18.19;27.84
8280;BME280;8335;42.646;23.380;2023-03-19T11:45:25;146006.34;;;17.96;28.25
8280;BME280;8335;42.646;23.380;2023-03-19T11:48:05;145915.06;;;17.59;28.74
8280;BME280;8335;42.646;23.380;2023-03-19T11:50:48;145833.81;;;17.26;30.14
8280;BME280;8335;42.646;23.380;2023-03-19T11:53:24;145786.31;;;17.06;30.80
8280;BME280;8335;42.646;23.380;2023-03-19T11:56:01;145811.34;;;17.17;30.75
8280;BME280;8335;42.646;23.380;2023-03-19T11:58:43;145767.56;;;16.99;29.62
8280;BME280;8335;42.646;23.380;2023-03-19T12:01:19;145723.88;;;16.81;30.61
8280;BME280;8335;42.646;23.380;2023-03-19T12:04:01;145685.13;;;16.65;30.44
8280;BME280;8335;42.646;23.380;2023-03-19T12:06:40;145663.84;;;16.57;32.16
8280;BME280;8335;42.646;23.380;2023-03-19T12:09:18;145617.66;;;16.38;31.76
8280;BME280;8335;42.646;23.380;2023-03-19T12:11:52;145590.19;;;16.27;32.26
8280;BME280;8335;42.646;23.380;2023-03-19T12:14:29;145580.22;;;16.22;32.29
8280;BME280;8335;42.646;23.380;2023-03-19T12:17:11;145567.72;;;16.17;31.92
8280;BME280;8335;42.646;23.380;2023-03-19T12:22:59;145517.78;;;15.97;32.75
8280;BME280;8335;42.646;23.380;2023-03-19T12:25:43;145491.56;;;15.86;32.47
8280;BME280;8335;42.646;23.380;2023-03-19T12:28:17;145454.09;;;15.71;32.54
8280;BME280;8335;42.646;23.380;2023-03-19T12:31:00;145460.38;;;15.74;32.71
8280;BME280;8335;42.646;23.380;2023-03-19T12:33:39;145470.31;;;15.78;32.21
8280;BME280;8335;42.646;23.380;2023-03-19T12:36:11;145487.78;;;15.85;32.50
8280;BME280;8335;42.646;23.380;2023-03-19T12:38:41;145486.56;;;15.84;32.96
8280;BME280;8335;42.646;23.380;2023-03-19T12:41:15;145479.09;;;15.81;32.85
8280;BME280;8335;42.646;23.380;2023-03-19T12:43:51;145449.13;;;15.69;32.36
8280;BME280;8335;42.646;23.380;2023-03-19T12:46:24;145432.88;;;15.62;32.69
8280;BME280;8335;42.646;23.380;2023-03-19T12:48:56;145450.34;;;15.69;33.15
8280;BME280;8335;42.646;23.380;2023-03-19T12:51:27;145454.09;;;15.71;33.88
8280;BME280;8335;42.646;23.380;2023-03-19T12:54:00;145471.56;;;15.78;33.78
8280;BME280;8335;42.646;23.380;2023-03-19T12:56:33;145480.31;;;15.82;33.05
8280;BME280;8335;42.646;23.380;2023-03-19T12:59:08;145477.84;;;15.81;33.47
8280;BME280;8335;42.646;23.380;2023-03-19T13:01:41;145491.56;;;15.86;33.31
8280;BME280;8335;42.646;23.380;2023-03-19T13:04:13;145476.59;;;15.80;33.52
8280;BME280;8335;42.646;23.380;2023-03-19T13:06:46;145440.41;;;15.65;33.37
8280;BME280;8335;42.646;23.380;2023-03-19T13:09:22;145417.84;;;15.56;33.75
8280;BME280;8335;42.646;23.380;2023-03-19T13:11:54;145406.66;;;15.52;33.15
8280;BME280;8335;42.646;23.380;2023-03-19T13:14:29;145440.41;;;15.65;33.50
8280;BME280;8335;42.646;23.380;2023-03-19T13:17:04;145435.38;;;15.63;33.74
8280;BME280;8335;42.646;23.380;2023-03-19T13:19:39;145449.13;;;15.69;33.81